Como, MS (38619)

5:15 PM CDT en Septiembre 22, 2014 (GMT -0500)
BHQ | Change Station
CLOSE
Current Station
Estación meteorológica personal
Location: Como, MS
Altura: 367 ft
Estaciones meteorológicas cercanas

Alt 367 ft 34.52 °N, 89.94 °W | Updated 12 minutes ago

Despejado
Despejado
76.8 ° F
Sensación térmica 78 ° F
N
2.2
Viento Variable Viento desde NE

Hoy
Alta -- | Baja -- ° F
--% Posibilidad de precipitaciones
Ayer
Alta -- | Baja -- ° F
Precip. -- pul
6:47 AM 6:56 PM
Creciente menguante, 2% visible
Presión 30.15 pul
Visibilidad 10.0 Millas
Nubes Despejado
Índice de calor 78 ° F
Punto de rocío 55 ° F
Humedad 47%
Precipitaciones 0.00 pul
Espesor de la nieve No disponible.
UV 2 de una escala de 12
Polen 7.90 de una escala de 12
Calidad del aire No disponible.
Flu Activity No disponible.
METAR KUOX 222155Z AUTO 04009KT 10SM CLR 24/12 A3015 RMK AO2 PWINO PNO

More Conditions Fewer Conditions

Presión 30.15 pul
Visibilidad 10.0 Millas
Nubes Despejado
Índice de calor 78 ° F
Punto de rocío 55 ° F
Humedad 47%
Precipitaciones 0.00 pul
Espesor de la nieve No disponible.
UV 2 de una escala de 12
Polen 7.90 de una escala de 12
Calidad del aire No disponible.
Flu Activity No disponible.
METAR KUOX 222155Z AUTO 04009KT 10SM CLR 24/12 A3015 RMK AO2 PWINO PNO

More Conditions Fewer Conditions

10-Day Weather Forecast

Almanac

Astronomía

Sep. 22, 2014 Salida Puesta
Hora real 6:47 AM CDT 6:56 PM CDT
Crepúsculo civil 6:22 AM CDT 7:21 PM CDT
Crepúsculo náutico 5:53 AM CDT 7:50 PM CDT
Crepúsculo astronómico 5:23 AM CDT 8:20 PM CDT
Luna 5:19 AM CDT 6:02 PM CDT
Horas de luz 12h 58m
Horas de luz
12h 08m
Tomorrow will be 2m 8s shorter.
Creciente menguante, 2% of the Moon is Illuminated
Hoy
Creciente menguante
Sep 24
Nueva
Oct 1
Cuarto creciente
Oct 8
Luna llena
Oct 15
Cuarto menguante

Extremos de hoy

Máximos del estado Bajos del estado

Community

WunderPhotos

Upload Photos

1,755,539 ¡fotos cargadas!

WunderBlogs® & News

By Dr. Jeff Masters
Director of Meteorology, Weather Underground
By Kari Strenfel
Meteorologist, Weather Underground
By Christopher C. Burt
Weather Historian, Weather Underground
September 22, 2014
September 22, 2014
September 22, 2014

Nearby

Grosos de nieve

Estación Profundido Altura
No tenemos constancia de nieve nueva.

Actividad de terremotos

Ciudad Distance Mag. Tiempo y dato
No hay informes recientes de la actividad sísmica.
Magnitud mínima muestra es 2,5.

Temperaturas de aguas costeras

Lugar Temperatura
Sin partes meteorológicos de las estaciones

Estaciones meteorológicas cercanas